Stations météo

Publicité
Edinburgh/Royal Botanic Garden , Grande-Bretagne (99180): Température de l'air & dewpoint: 13.09.2019 16:00:00 - 19.09.2019 16:00:00 (BST)Edinburgh/Royal Botanic Garden , Grande-Bretagne (99180): Température de l'air -20cm & Température de l'air -100cm: 13.09.2019 16:00:00 - 19.09.2019 16:00:00 (BST)Edinburgh/Royal Botanic Garden , Grande-Bretagne (99180): Quantités de précipitations: 13.09.2019 16:00:00 - 19.09.2019 16:00:00 (BST)
Date & Time tt [°C] td [°C] tt -20cm [°C] tt -100cm [°C] rr [mm]
19.09.2019 16:00:00 - - - - -
19.09.2019 15:00:00 18,9 11,5 - - 0,0
19.09.2019 14:00:00 16,4 11,9 - - 0,0
19.09.2019 13:00:00 16,6 12,1 - - 0,0
19.09.2019 12:00:00 15,3 11,8 - - 0,0
19.09.2019 11:00:00 14,4 11,3 - - 0,0
19.09.2019 10:00:00 13,8 11,0 14,5 14,7 0,0
19.09.2019 09:00:00 13,2 11,1 - - 0,0
19.09.2019 08:00:00 12,5 11,0 - - 0,0
19.09.2019 07:00:00 12,3 11,1 - - 0,0
19.09.2019 06:00:00 11,9 11,2 - - 0,0
19.09.2019 05:00:00 11,5 11,0 - - 0,0
19.09.2019 04:00:00 10,3 9,9 - - 0,0
19.09.2019 03:00:00 10,7 9,8 - - 0,0
19.09.2019 02:00:00 11,2 10,2 - - 0,0
19.09.2019 01:00:00 11,8 10,7 - - 0,0
19.09.2019 00:00:00 12,1 10,8 - - 0,0
18.09.2019 23:00:00 12,5 11,0 - - 0,0
18.09.2019 22:00:00 13,3 11,2 - - 0,0
18.09.2019 21:00:00 14,5 11,6 - - 0,0
18.09.2019 20:00:00 15,0 11,7 - - 0,0
18.09.2019 19:00:00 15,2 11,4 - - 0,0
18.09.2019 18:00:00 16,1 11,4 - - 0,0
18.09.2019 17:00:00 16,3 11,1 - - 0,0
18.09.2019 16:00:00 16,2 10,8 - - 0,0
18.09.2019 15:00:00 16,3 11,0 - - 0,0
18.09.2019 14:00:00 16,0 10,5 - - 0,0
18.09.2019 13:00:00 15,8 9,9 - - 0,0
18.09.2019 12:00:00 14,5 9,7 - - 0,0
18.09.2019 11:00:00 14,1 9,1 - - 0,0
18.09.2019 10:00:00 11,9 6,6 14,4 14,7 0,0
18.09.2019 09:00:00 11,2 6,7 - - 0,0
18.09.2019 08:00:00 10,2 7,1 - - 0,0
18.09.2019 07:00:00 9,9 6,7 - - 0,0
18.09.2019 06:00:00 9,8 6,6 - - 0,0
18.09.2019 05:00:00 9,8 6,8 - - 0,0
18.09.2019 04:00:00 9,8 6,8 - - 0,0
18.09.2019 03:00:00 9,4 7,0 - - 0,0
18.09.2019 02:00:00 9,5 6,7 - - 0,0
18.09.2019 01:00:00 9,3 6,5 - - 0,0
18.09.2019 00:00:00 8,9 6,6 - - 0,0
17.09.2019 23:00:00 8,7 6,4 - - 0,0
17.09.2019 22:00:00 9,2 5,7 - - 0,0
17.09.2019 21:00:00 10,5 6,0 - - 0,0
17.09.2019 20:00:00 11,5 6,0 - - 0,0
17.09.2019 19:00:00 13,4 5,3 - - 0,0
17.09.2019 18:00:00 14,2 4,8 - - 0,0
17.09.2019 17:00:00 15,0 4,0 - - 0,0
17.09.2019 16:00:00 16,2 5,1 - - 0,0
17.09.2019 15:00:00 14,9 4,1 - - 0,0
17.09.2019 14:00:00 14,2 3,8 - - 0,0
17.09.2019 13:00:00 14,5 4,6 - - 0,0
17.09.2019 12:00:00 14,8 4,9 - - 0,0
17.09.2019 11:00:00 13,7 3,1 - - 0,0
17.09.2019 10:00:00 12,8 5,8 14,2 14,9 0,0
17.09.2019 09:00:00 10,9 6,2 - - 0,0
17.09.2019 08:00:00 8,6 5,9 - - 0,0
17.09.2019 07:00:00 7,3 5,5 - - 0,0
17.09.2019 06:00:00 8,4 6,4 - - 0,0
17.09.2019 05:00:00 8,6 6,8 - - 0,0
17.09.2019 04:00:00 9,1 6,9 - - 0,0
17.09.2019 03:00:00 9,3 7,0 - - 0,0
17.09.2019 02:00:00 9,7 7,1 - - 0,0
17.09.2019 01:00:00 10,3 7,1 - - 0,0
17.09.2019 00:00:00 10,3 7,2 - - 0,0
16.09.2019 23:00:00 10,5 7,1 - - 0,0
16.09.2019 22:00:00 10,6 7,4 - - 0,0
16.09.2019 21:00:00 11,3 7,3 - - 0,0
16.09.2019 20:00:00 11,9 7,0 - - 0,0
16.09.2019 19:00:00 13,0 7,2 - - 0,0
16.09.2019 18:00:00 13,9 6,5 - - 0,0
16.09.2019 17:00:00 13,8 7,7 - - 0,0
16.09.2019 16:00:00 15,5 7,5 - - 0,0
16.09.2019 15:00:00 16,1 6,8 - - 0,0
16.09.2019 14:00:00 16,5 7,2 - - 0,0
16.09.2019 13:00:00 14,5 7,0 - - 0,0
16.09.2019 12:00:00 14,4 7,8 - - 0,0
16.09.2019 11:00:00 13,3 7,7 - - 0,0
16.09.2019 10:00:00 12,6 8,9 14,7 15,0 0,0
16.09.2019 09:00:00 11,2 8,4 - - 0,0
16.09.2019 08:00:00 9,7 7,9 - - 0,0
16.09.2019 07:00:00 9,0 8,1 - - 0,0
16.09.2019 06:00:00 7,5 6,4 - - 0,0
16.09.2019 05:00:00 7,2 6,6 - - 0,0
16.09.2019 04:00:00 6,0 5,3 - - 0,0
16.09.2019 03:00:00 6,0 5,4 - - 0,0
16.09.2019 02:00:00 6,2 5,2 - - 0,0
16.09.2019 01:00:00 6,7 5,3 - - 0,0
16.09.2019 00:00:00 8,0 5,8 - - 0,0
15.09.2019 23:00:00 8,5 5,6 - - 0,0
15.09.2019 22:00:00 9,0 5,0 - - 0,0
15.09.2019 21:00:00 9,5 5,1 - - 0,0
15.09.2019 20:00:00 10,9 4,3 - - 0,0
15.09.2019 19:00:00 13,0 4,5 - - 0,0
15.09.2019 18:00:00 14,2 4,2 - - 0,0
15.09.2019 17:00:00 15,4 5,5 - - 0,0
15.09.2019 16:00:00 15,9 5,7 - - 0,0
15.09.2019 15:00:00 16,1 6,3 - - 0,0
15.09.2019 14:00:00 13,9 6,5 - - 0,0
15.09.2019 13:00:00 13,1 7,1 - - 0,0
15.09.2019 12:00:00 13,3 7,1 - - 0,0
15.09.2019 11:00:00 12,7 7,3 - - 0,0
15.09.2019 10:00:00 11,8 7,0 15,2 15,0 0,0
15.09.2019 09:00:00 11,4 6,5 - - 0,0
15.09.2019 08:00:00 11,2 6,0 - - 0,0
15.09.2019 07:00:00 10,8 6,3 - - 0,0
15.09.2019 06:00:00 11,5 6,9 - - 0,0
15.09.2019 05:00:00 11,6 8,4 - - 0,0
15.09.2019 04:00:00 11,9 8,1 - - 0,0
15.09.2019 03:00:00 12,2 8,8 - - 0,0
15.09.2019 02:00:00 12,5 9,7 - - 0,0
15.09.2019 01:00:00 13,1 10,2 - - 0,0
15.09.2019 00:00:00 13,9 11,9 - - 0,4
14.09.2019 23:00:00 15,3 14,1 - - 0,0
14.09.2019 22:00:00 15,0 13,4 - - 0,0
14.09.2019 21:00:00 16,0 12,1 - - 0,0
14.09.2019 20:00:00 16,3 11,4 - - 0,0
14.09.2019 19:00:00 16,5 10,0 - - 0,0
14.09.2019 18:00:00 17,3 10,2 - - 0,0
14.09.2019 17:00:00 17,6 9,6 - - 0,0
14.09.2019 16:00:00 18,2 8,3 - - 0,0
14.09.2019 15:00:00 17,0 8,5 - - 0,0
14.09.2019 14:00:00 16,9 8,3 - - 0,0
14.09.2019 13:00:00 16,7 9,1 - - 0,0
14.09.2019 12:00:00 15,4 9,6 - - 0,0
14.09.2019 11:00:00 14,7 9,2 - - 0,0
14.09.2019 10:00:00 13,9 8,7 15,2 15,0 0,0
14.09.2019 09:00:00 13,5 8,3 - - 0,0
14.09.2019 08:00:00 12,8 8,6 - - 0,0
14.09.2019 07:00:00 12,4 8,4 - - 0,0
14.09.2019 06:00:00 12,5 8,7 - - 0,0
14.09.2019 05:00:00 12,2 8,5 - - 0,0
14.09.2019 04:00:00 11,6 8,3 - - 0,0
14.09.2019 03:00:00 10,9 7,9 - - 0,0
14.09.2019 02:00:00 11,1 8,0 - - 0,0
14.09.2019 01:00:00 11,1 8,2 - - 0,0
14.09.2019 00:00:00 11,5 8,3 - - 0,0
13.09.2019 23:00:00 11,1 7,8 - - 0,0
13.09.2019 22:00:00 10,7 6,9 - - 0,0
13.09.2019 21:00:00 11,7 6,8 - - 0,0
13.09.2019 20:00:00 13,2 7,4 - - 0,0
13.09.2019 19:00:00 14,3 7,2 - - 0,0
13.09.2019 18:00:00 15,2 6,1 - - 0,0
13.09.2019 17:00:00 16,2 5,7 - - 0,0
13.09.2019 16:00:00 17,2 5,5 - - 0,0

tt = Température de l'air
td = dewpoint
tt -20cm = Température de l'air -20cm
tt -100cm = Température de l'air -100cm
rr = Quantités de précipitations

stations d'obs. à proximité